createdAt,value
2018-09-23T00:00:47.375Z,0.00
2018-09-23T00:01:47.348Z,0.00
2018-09-23T00:02:47.320Z,0.00
2018-09-23T00:03:47.299Z,0.00
2018-09-23T00:04:47.267Z,0.00
2018-09-23T00:05:47.238Z,0.00
2018-09-23T00:06:47.213Z,0.00
2018-09-23T00:07:47.184Z,0.00
2018-09-23T00:08:47.159Z,0.00
2018-09-23T00:09:47.131Z,0.00
2018-09-23T00:10:47.102Z,0.00
2018-09-23T00:11:47.076Z,0.00
2018-09-23T00:12:47.048Z,0.00
2018-09-23T00:13:47.021Z,0.00
2018-09-23T00:14:46.992Z,0.00
2018-09-23T00:15:46.968Z,0.00
2018-09-23T00:16:46.940Z,0.00
2018-09-23T00:17:46.913Z,0.00
2018-09-23T00:18:46.884Z,0.00
2018-09-23T00:19:46.857Z,0.00
2018-09-23T00:20:46.831Z,0.00
2018-09-23T00:21:46.803Z,0.00
2018-09-23T00:22:46.774Z,0.00
2018-09-23T00:23:46.747Z,0.00
2018-09-23T00:24:46.719Z,0.00
2018-09-23T00:25:46.695Z,0.00
2018-09-23T00:26:46.665Z,0.00
2018-09-23T00:27:46.639Z,0.00
2018-09-23T00:28:46.616Z,0.00
2018-09-23T00:29:46.585Z,0.00
2018-09-23T00:30:46.555Z,0.00
2018-09-23T00:31:46.528Z,0.00
2018-09-23T00:32:46.502Z,0.00
2018-09-23T00:33:46.474Z,0.00
2018-09-23T00:34:46.446Z,0.00
2018-09-23T00:35:46.421Z,0.00
2018-09-23T00:36:46.397Z,0.00
2018-09-23T00:37:46.364Z,0.00
2018-09-23T00:38:46.337Z,0.00
2018-09-23T00:39:46.309Z,0.00
2018-09-23T00:40:46.280Z,0.00
2018-09-23T00:41:46.255Z,0.00
2018-09-23T00:42:46.232Z,0.00
2018-09-23T00:43:46.199Z,0.00
2018-09-23T00:44:46.173Z,0.00
2018-09-23T00:45:46.146Z,0.00
2018-09-23T00:46:46.117Z,0.00
2018-09-23T00:47:46.090Z,0.00
2018-09-23T00:48:46.065Z,0.00
2018-09-23T00:49:46.034Z,0.00
2018-09-23T00:50:46.007Z,0.00
2018-09-23T00:51:45.978Z,0.00
2018-09-23T00:52:45.951Z,0.00
2018-09-23T00:53:45.925Z,0.00
2018-09-23T00:54:45.896Z,0.00
2018-09-23T00:55:45.868Z,0.00
2018-09-23T00:56:45.841Z,0.00
2018-09-23T00:57:45.815Z,0.00
2018-09-23T00:58:45.788Z,0.00
2018-09-23T00:59:45.759Z,0.00
2018-09-23T01:00:45.735Z,0.00
2018-09-23T01:01:45.706Z,0.00
2018-09-23T01:02:45.678Z,0.00
2018-09-23T01:03:45.651Z,0.00
2018-09-23T01:04:45.669Z,0.00
2018-09-23T01:05:45.595Z,0.00
2018-09-23T01:06:45.568Z,0.00
2018-09-23T01:07:45.540Z,0.00
2018-09-23T01:08:45.517Z,0.00
2018-09-23T01:09:45.487Z,0.00
2018-09-23T01:10:45.460Z,0.00
2018-09-23T01:11:45.433Z,0.00
2018-09-23T01:12:45.405Z,0.00
2018-09-23T01:13:45.382Z,0.00
2018-09-23T01:14:45.354Z,0.00
2018-09-23T01:15:45.324Z,0.00
2018-09-23T01:16:45.296Z,0.00
2018-09-23T01:17:45.270Z,0.00
2018-09-23T01:18:45.243Z,0.00
2018-09-23T01:19:45.216Z,0.00
2018-09-23T01:20:45.188Z,0.00
2018-09-23T01:21:45.161Z,0.00
2018-09-23T01:22:45.141Z,0.00
2018-09-23T01:23:45.107Z,0.00
2018-09-23T01:24:45.081Z,0.00
2018-09-23T01:25:45.054Z,0.00
2018-09-23T01:26:45.027Z,0.00
2018-09-23T01:27:44.998Z,0.00
2018-09-23T01:28:44.973Z,0.00
2018-09-23T01:29:44.945Z,0.00
2018-09-23T01:30:44.918Z,0.00
2018-09-23T01:31:44.891Z,0.00
2018-09-23T01:32:44.864Z,0.00
2018-09-23T01:33:44.839Z,0.00
2018-09-23T01:34:44.809Z,0.00
2018-09-23T01:35:44.782Z,0.00
2018-09-23T01:36:44.757Z,0.00
2018-09-23T01:37:44.727Z,0.00
2018-09-23T01:38:44.700Z,0.00
2018-09-23T01:39:44.674Z,0.00
2018-09-23T01:40:44.647Z,0.00
2018-09-23T01:41:44.619Z,0.00
2018-09-23T01:42:44.592Z,0.00
2018-09-23T01:43:44.565Z,0.00
2018-09-23T01:44:44.537Z,0.00
2018-09-23T01:45:44.511Z,0.00
2018-09-23T01:46:44.482Z,0.00
2018-09-23T01:47:44.457Z,0.00
2018-09-23T01:48:44.429Z,0.00
2018-09-23T01:49:44.402Z,0.00
2018-09-23T01:50:44.374Z,0.00
2018-09-23T01:51:44.348Z,0.00
2018-09-23T01:52:44.321Z,0.00
2018-09-23T01:53:44.294Z,0.00
2018-09-23T01:54:44.265Z,0.00
2018-09-23T01:55:44.239Z,0.00
2018-09-23T01:56:44.214Z,0.00
2018-09-23T01:57:44.185Z,0.00
2018-09-23T01:58:44.158Z,0.00
2018-09-23T01:59:44.131Z,0.00
2018-09-23T02:00:44.105Z,0.00
2018-09-23T02:01:44.077Z,0.00
2018-09-23T02:02:44.049Z,0.00
2018-09-23T02:03:44.022Z,0.00
2018-09-23T02:04:43.995Z,0.00
2018-09-23T02:05:43.968Z,0.00
2018-09-23T02:06:43.939Z,0.00
2018-09-23T02:07:43.914Z,0.00
2018-09-23T02:08:43.885Z,0.00
2018-09-23T02:09:43.859Z,0.00
2018-09-23T02:10:43.831Z,0.00
2018-09-23T02:11:43.804Z,0.00
2018-09-23T02:12:43.777Z,0.00
2018-09-23T02:13:43.749Z,0.00
2018-09-23T02:14:43.722Z,0.00
2018-09-23T02:15:43.697Z,0.00
2018-09-23T02:16:43.666Z,0.00
2018-09-23T02:17:43.641Z,0.00
2018-09-23T02:18:43.612Z,0.00
2018-09-23T02:19:43.590Z,0.00
2018-09-23T02:20:43.560Z,0.00
2018-09-23T02:21:43.534Z,0.00
2018-09-23T02:22:43.504Z,0.00
2018-09-23T02:23:43.479Z,0.00
2018-09-23T02:24:43.449Z,0.00
2018-09-23T02:25:43.423Z,0.00
2018-09-23T02:26:43.394Z,0.00
2018-09-23T02:27:43.367Z,0.00
2018-09-23T02:28:43.339Z,0.00
2018-09-23T02:29:43.312Z,0.00
2018-09-23T02:30:43.285Z,0.00
2018-09-23T02:31:43.259Z,0.00
2018-09-23T02:32:43.231Z,0.00
2018-09-23T02:33:43.203Z,0.00
2018-09-23T02:34:43.177Z,0.00
2018-09-23T02:35:43.148Z,0.00
2018-09-23T02:36:43.132Z,0.00
2018-09-23T02:37:43.094Z,0.00
2018-09-23T02:38:43.066Z,0.00
2018-09-23T02:39:43.040Z,0.00
2018-09-23T02:40:43.018Z,0.00
2018-09-23T02:41:42.985Z,0.00
2018-09-23T02:42:42.958Z,0.00
2018-09-23T02:43:42.930Z,0.00
2018-09-23T02:44:42.904Z,0.00
2018-09-23T02:45:42.877Z,0.00
2018-09-23T02:46:42.848Z,0.00
2018-09-23T02:47:42.821Z,0.00
2018-09-23T02:48:42.795Z,0.00
2018-09-23T02:49:42.766Z,0.00
2018-09-23T02:50:42.738Z,0.00
2018-09-23T02:51:42.712Z,0.00
2018-09-23T02:52:42.687Z,0.00
2018-09-23T02:53:42.657Z,0.00
2018-09-23T02:54:42.639Z,0.00
2018-09-23T02:55:42.602Z,0.00
2018-09-23T02:56:42.575Z,0.00
2018-09-23T02:57:42.547Z,0.00
2018-09-23T02:58:42.517Z,0.00
2018-09-23T02:59:42.492Z,0.00
2018-09-23T03:00:42.465Z,0.00
2018-09-23T03:01:42.440Z,0.00
2018-09-23T03:02:42.410Z,0.00
2018-09-23T03:03:42.383Z,0.00
2018-09-23T03:04:42.354Z,0.00
2018-09-23T03:05:42.327Z,0.00
2018-09-23T03:06:42.298Z,0.00
2018-09-23T03:07:42.271Z,0.00
2018-09-23T03:08:42.245Z,0.00
2018-09-23T03:09:42.216Z,0.00
2018-09-23T03:10:42.189Z,0.00
2018-09-23T03:11:42.161Z,0.00
2018-09-23T03:12:42.134Z,0.00
2018-09-23T03:13:42.107Z,0.00
2018-09-23T03:14:42.080Z,0.00
2018-09-23T03:15:42.051Z,0.00
2018-09-23T03:16:42.026Z,0.00
2018-09-23T03:17:41.996Z,0.00
2018-09-23T03:18:41.972Z,0.00
2018-09-23T03:19:41.941Z,0.00
2018-09-23T03:20:41.914Z,0.00
2018-09-23T03:21:41.889Z,0.00
2018-09-23T03:22:41.859Z,0.00
2018-09-23T03:23:41.832Z,0.00
2018-09-23T03:24:41.803Z,0.00
2018-09-23T03:25:41.778Z,0.00
2018-09-23T03:26:41.748Z,0.00
2018-09-23T03:27:41.723Z,0.00
2018-09-23T03:28:41.694Z,0.00
2018-09-23T03:29:41.667Z,0.00
2018-09-23T03:30:41.637Z,0.00
2018-09-23T03:31:41.610Z,0.00
2018-09-23T03:32:41.584Z,0.00
2018-09-23T03:33:41.555Z,0.00
2018-09-23T03:34:41.526Z,0.00
2018-09-23T03:35:41.502Z,0.00
2018-09-23T03:36:41.473Z,0.00
2018-09-23T03:37:41.447Z,0.00
2018-09-23T03:38:41.421Z,0.00
2018-09-23T03:39:41.389Z,0.00
2018-09-23T03:40:41.363Z,0.00
2018-09-23T03:41:41.335Z,0.00
2018-09-23T03:42:41.307Z,0.00
2018-09-23T03:43:41.279Z,0.00
2018-09-23T03:44:41.255Z,0.00
2018-09-23T03:45:41.224Z,0.00
2018-09-23T03:46:41.197Z,0.00
2018-09-23T03:47:41.171Z,0.00
2018-09-23T03:48:41.143Z,0.00
2018-09-23T03:49:41.114Z,0.00
2018-09-23T03:50:41.086Z,0.00
2018-09-23T03:51:41.058Z,0.00
2018-09-23T03:52:41.032Z,0.00
2018-09-23T03:53:41.003Z,0.00
2018-09-23T03:54:40.975Z,0.00
2018-09-23T03:55:40.949Z,0.00
2018-09-23T03:56:40.921Z,0.00
2018-09-23T03:57:40.893Z,0.00
2018-09-23T03:58:40.866Z,0.00
2018-09-23T03:59:40.838Z,0.00
2018-09-23T04:00:40.809Z,0.00
2018-09-23T04:01:40.782Z,0.00
2018-09-23T04:02:40.754Z,0.00
2018-09-23T04:03:40.728Z,0.00
2018-09-23T04:04:40.698Z,0.00
2018-09-23T04:05:40.671Z,0.00
2018-09-23T04:06:40.644Z,0.00
2018-09-23T04:07:40.615Z,0.00
2018-09-23T04:08:40.595Z,0.00
2018-09-23T04:09:40.567Z,0.00
2018-09-23T04:10:40.531Z,0.00
2018-09-23T04:11:40.505Z,0.00
2018-09-23T04:12:40.477Z,0.00
2018-09-23T04:13:40.449Z,0.00
2018-09-23T04:14:40.422Z,0.00
2018-09-23T04:15:40.398Z,0.00
2018-09-23T04:16:40.367Z,0.00
2018-09-23T04:17:40.338Z,0.00
2018-09-23T04:18:40.310Z,0.00
2018-09-23T04:19:40.285Z,0.00
2018-09-23T04:20:40.255Z,0.00
2018-09-23T04:21:40.227Z,0.00
2018-09-23T04:22:40.200Z,0.00
2018-09-23T04:23:40.172Z,0.00
2018-09-23T04:24:40.147Z,4.00
2018-09-23T04:25:40.119Z,4.00
2018-09-23T04:26:40.089Z,4.00
2018-09-23T04:27:40.061Z,0.00
2018-09-23T04:28:40.034Z,4.00
2018-09-23T04:29:40.005Z,4.00
2018-09-23T04:30:39.977Z,4.00
2018-09-23T04:31:39.949Z,4.00
2018-09-23T04:32:39.921Z,8.00
2018-09-23T04:33:39.893Z,8.00
2018-09-23T04:34:39.865Z,12.00
2018-09-23T04:35:39.839Z,12.00
2018-09-23T04:36:39.809Z,12.00
2018-09-23T04:37:39.784Z,20.00
2018-09-23T04:38:39.755Z,20.00
2018-09-23T04:39:39.727Z,28.00
2018-09-23T04:40:39.699Z,28.00
2018-09-23T04:41:39.673Z,36.00
2018-09-23T04:42:39.645Z,40.00
2018-09-23T04:43:39.616Z,48.00
2018-09-23T04:44:39.589Z,56.00
2018-09-23T04:45:39.564Z,64.00
2018-09-23T04:46:39.533Z,72.00
2018-09-23T04:47:39.508Z,84.00
2018-09-23T04:48:39.481Z,96.00
2018-09-23T04:49:39.452Z,108.00
2018-09-23T04:50:39.424Z,124.00
2018-09-23T04:51:39.397Z,140.00
2018-09-23T04:52:39.370Z,160.00
2018-09-23T04:53:39.343Z,188.00
2018-09-23T04:54:39.314Z,220.00
2018-09-23T04:55:39.286Z,252.00
2018-09-23T04:56:39.263Z,292.00
2018-09-23T04:57:39.232Z,332.00
2018-09-23T04:58:39.204Z,368.00
2018-09-23T04:59:39.177Z,412.00
2018-09-23T05:00:39.151Z,436.00
2018-09-23T05:01:39.122Z,452.00
2018-09-23T05:02:39.094Z,468.00
2018-09-23T05:03:39.066Z,504.00
2018-09-23T05:04:39.039Z,548.00
2018-09-23T05:05:39.013Z,596.00
2018-09-23T05:06:38.983Z,644.00
2018-09-23T05:07:38.956Z,684.00
2018-09-23T05:08:38.929Z,720.00
2018-09-23T05:09:38.904Z,752.00
2018-09-23T05:10:38.875Z,792.00
2018-09-23T05:11:38.848Z,832.00
2018-09-23T05:12:38.820Z,868.00
2018-09-23T05:13:38.797Z,900.00
2018-09-23T05:14:38.764Z,936.00
2018-09-23T05:15:38.738Z,992.00
2018-09-23T05:16:38.712Z,1060.00
2018-09-23T05:17:38.684Z,1128.00
2018-09-23T05:18:38.655Z,1236.00
2018-09-23T05:19:38.629Z,1368.00
2018-09-23T05:20:38.603Z,1472.00
2018-09-23T05:21:38.578Z,1600.00
2018-09-23T05:22:38.547Z,1728.00
2018-09-23T05:23:38.521Z,1780.00
2018-09-23T05:24:38.494Z,1788.00
2018-09-23T05:25:38.466Z,1752.00
2018-09-23T05:26:38.439Z,1748.00
2018-09-23T05:27:38.416Z,1752.00
2018-09-23T05:28:38.384Z,1756.00
2018-09-23T05:29:38.356Z,1792.00
2018-09-23T05:30:38.330Z,1848.00
2018-09-23T05:31:38.303Z,1892.00
2018-09-23T05:32:38.276Z,1928.00
2018-09-23T05:33:38.250Z,1968.00
2018-09-23T05:34:38.222Z,1960.00
2018-09-23T05:35:38.196Z,1944.00
2018-09-23T05:36:38.167Z,1956.00
2018-09-23T05:37:38.141Z,2044.00
2018-09-23T05:38:38.114Z,2244.00
2018-09-23T05:39:38.086Z,2488.00
2018-09-23T05:40:38.061Z,2684.00
2018-09-23T05:41:38.034Z,2820.00
2018-09-23T05:42:38.006Z,2912.00
2018-09-23T05:43:37.977Z,2924.00
2018-09-23T05:44:37.951Z,2964.00
2018-09-23T05:45:37.927Z,3052.00
2018-09-23T05:46:37.898Z,3140.00
2018-09-23T05:47:37.871Z,3244.00
2018-09-23T05:48:37.843Z,3420.00
2018-09-23T05:49:37.819Z,3660.00
2018-09-23T05:50:37.791Z,3844.00
2018-09-23T05:51:37.767Z,3876.00
2018-09-23T05:52:37.737Z,3864.00
2018-09-23T05:53:37.712Z,3864.00
2018-09-23T05:54:37.684Z,3872.00
2018-09-23T05:55:37.658Z,3852.00
2018-09-23T05:56:37.632Z,3828.00
2018-09-23T05:57:37.607Z,3772.00
2018-09-23T05:58:37.578Z,3736.00
2018-09-23T05:59:37.553Z,3840.00
2018-09-23T06:00:37.525Z,4080.00
2018-09-23T06:01:37.501Z,4356.00
2018-09-23T06:02:37.471Z,4528.00
2018-09-23T06:03:37.445Z,4616.00
2018-09-23T06:04:37.419Z,4652.00
2018-09-23T06:05:37.391Z,4592.00
2018-09-23T06:06:37.365Z,4432.00
2018-09-23T06:07:37.340Z,4236.00
2018-09-23T06:08:37.316Z,4152.00
2018-09-23T06:09:37.288Z,4228.00
2018-09-23T06:10:37.260Z,4468.00
2018-09-23T06:11:37.233Z,4856.00
2018-09-23T06:12:37.208Z,5216.00
2018-09-23T06:13:37.185Z,5528.00
2018-09-23T06:14:37.155Z,5888.00
2018-09-23T06:15:37.129Z,6228.00
2018-09-23T06:16:37.104Z,6384.00
2018-09-23T06:17:37.077Z,6368.00
2018-09-23T06:18:37.053Z,6236.00
2018-09-23T06:19:37.024Z,6036.00
2018-09-23T06:20:36.998Z,5844.00
2018-09-23T06:21:36.977Z,5664.00
2018-09-23T06:22:36.943Z,5464.00
2018-09-23T06:23:36.918Z,5340.00
2018-09-23T06:24:36.893Z,5376.00
2018-09-23T06:25:36.867Z,5716.00
2018-09-23T06:26:36.841Z,6408.00
2018-09-23T06:27:36.814Z,7372.00
2018-09-23T06:28:36.792Z,8200.00
2018-09-23T06:29:36.763Z,8636.00
2018-09-23T06:30:36.736Z,8760.00
2018-09-23T06:31:36.718Z,8792.00
2018-09-23T06:32:36.684Z,8804.00
2018-09-23T06:33:36.658Z,8924.00
2018-09-23T06:34:36.633Z,8996.00
2018-09-23T06:35:36.607Z,9036.00
2018-09-23T06:36:36.581Z,9152.00
2018-09-23T06:37:36.555Z,9348.00
2018-09-23T06:38:36.531Z,9528.00
2018-09-23T06:39:36.507Z,9684.00
2018-09-23T06:40:36.478Z,9948.00
2018-09-23T06:41:36.453Z,10260.00
2018-09-23T06:42:36.426Z,10468.00
2018-09-23T06:43:36.402Z,10680.00
2018-09-23T06:44:36.377Z,10856.00
2018-09-23T06:45:36.355Z,11020.00
2018-09-23T06:46:36.324Z,11176.00
2018-09-23T06:47:36.298Z,11304.00
2018-09-23T06:48:36.276Z,11396.00
2018-09-23T06:49:36.248Z,11600.00
2018-09-23T06:50:36.221Z,11856.00
2018-09-23T06:51:36.198Z,12196.00
2018-09-23T06:52:36.171Z,12560.00
2018-09-23T06:53:36.147Z,12984.00
2018-09-23T06:54:36.121Z,13560.00
2018-09-23T06:55:36.095Z,14176.00
2018-09-23T06:56:36.070Z,14472.00
2018-09-23T06:57:36.044Z,14324.00
2018-09-23T06:58:36.019Z,14248.00
2018-09-23T06:59:35.995Z,14384.00
2018-09-23T07:00:35.969Z,14536.00
2018-09-23T07:01:35.945Z,14540.00
2018-09-23T07:02:35.920Z,14236.00
2018-09-23T07:03:35.895Z,13600.00
2018-09-23T07:04:35.922Z,12852.00
2018-09-23T07:05:35.845Z,12360.00
2018-09-23T07:06:35.820Z,12256.00
2018-09-23T07:07:35.795Z,12456.00
2018-09-23T07:08:35.770Z,12668.00
2018-09-23T07:09:35.747Z,12792.00
2018-09-23T07:10:35.720Z,12852.00
2018-09-23T07:11:35.695Z,13052.00
2018-09-23T07:12:35.671Z,13336.00
2018-09-23T07:13:35.647Z,13800.00
2018-09-23T07:14:35.620Z,14356.00
2018-09-23T07:15:35.596Z,14952.00
2018-09-23T07:16:35.587Z,15528.00
2018-09-23T07:17:35.547Z,16068.00
2018-09-23T07:18:35.521Z,16532.00
2018-09-23T07:19:35.498Z,16892.00
2018-09-23T07:20:35.474Z,17116.00
2018-09-23T07:21:35.448Z,16880.00
2018-09-23T07:22:35.424Z,16328.00
2018-09-23T07:23:35.436Z,15956.00
2018-09-23T07:24:35.380Z,15588.00
2018-09-23T07:25:35.350Z,15504.00
2018-09-23T07:26:35.357Z,15748.00
2018-09-23T07:27:35.304Z,16520.00
2018-09-23T07:28:35.277Z,17504.00
2018-09-23T07:29:35.253Z,18432.00
2018-09-23T07:30:35.228Z,19520.00
2018-09-23T07:31:35.202Z,20576.00
2018-09-23T07:32:35.179Z,20576.00
2018-09-23T07:33:35.155Z,20480.00
2018-09-23T07:34:35.130Z,20800.00
2018-09-23T07:35:35.106Z,21632.00
2018-09-23T07:36:35.137Z,22528.00
2018-09-23T07:37:35.062Z,22976.00
2018-09-23T07:38:35.032Z,22656.00
2018-09-23T07:39:35.015Z,21664.00
2018-09-23T07:40:34.985Z,20864.00
2018-09-23T07:41:34.961Z,19808.00
2018-09-23T07:42:34.936Z,19168.00
2018-09-23T07:43:34.912Z,18912.00
2018-09-23T07:44:34.889Z,19328.00
2018-09-23T07:45:34.869Z,19872.00
2018-09-23T07:46:34.842Z,20384.00
2018-09-23T07:47:34.819Z,20640.00
2018-09-23T07:48:34.794Z,21120.00
2018-09-23T07:49:34.771Z,22176.00
2018-09-23T07:50:34.749Z,22944.00
2018-09-23T07:51:34.724Z,23488.00
2018-09-23T07:52:34.704Z,24384.00
2018-09-23T07:53:34.677Z,25024.00
2018-09-23T07:54:34.651Z,25120.00
2018-09-23T07:55:34.628Z,25184.00
2018-09-23T07:56:34.652Z,26016.00
2018-09-23T07:57:34.584Z,25760.00
2018-09-23T07:58:34.559Z,23648.00
2018-09-23T07:59:34.536Z,22080.00
2018-09-23T08:00:34.514Z,22432.00
2018-09-23T08:01:34.490Z,23392.00
2018-09-23T08:02:34.467Z,23104.00
2018-09-23T08:03:34.587Z,21824.00
2018-09-23T08:04:34.422Z,21152.00
2018-09-23T08:05:34.398Z,21120.00
2018-09-23T08:06:34.374Z,21216.00
2018-09-23T08:07:34.354Z,21408.00
2018-09-23T08:08:34.329Z,20800.00
2018-09-23T08:09:34.308Z,20096.00
2018-09-23T08:10:34.282Z,19872.00
2018-09-23T08:11:34.259Z,20224.00
2018-09-23T08:12:34.279Z,20416.00
2018-09-23T08:13:34.245Z,20480.00
2018-09-23T08:14:34.599Z,21760.00
2018-09-23T08:15:34.167Z,23680.00
2018-09-23T08:16:34.145Z,26272.00
2018-09-23T08:17:34.122Z,27616.00
2018-09-23T08:18:34.109Z,27104.00
2018-09-23T08:19:34.115Z,25792.00
2018-09-23T08:20:34.132Z,23648.00
2018-09-23T08:21:34.032Z,21472.00
2018-09-23T08:22:34.007Z,19712.00
2018-09-23T08:23:33.984Z,19296.00
2018-09-23T08:24:33.960Z,20544.00
2018-09-23T08:25:33.951Z,22368.00
2018-09-23T08:26:33.980Z,23232.00
2018-09-23T08:27:33.893Z,24064.00
2018-09-23T08:28:33.869Z,24928.00
2018-09-23T08:29:33.847Z,23456.00
2018-09-23T08:30:33.827Z,23040.00
2018-09-23T08:31:33.800Z,23456.00
2018-09-23T08:32:33.777Z,23392.00
2018-09-23T08:33:33.753Z,24224.00
2018-09-23T08:34:33.730Z,23936.00
2018-09-23T08:35:33.707Z,22720.00
2018-09-23T08:36:33.683Z,21792.00
2018-09-23T08:37:33.660Z,21568.00
2018-09-23T08:38:33.638Z,21760.00
2018-09-23T08:39:33.614Z,22688.00
2018-09-23T08:40:33.591Z,23648.00
2018-09-23T08:41:33.568Z,24512.00
2018-09-23T08:42:33.545Z,26176.00
2018-09-23T08:43:33.521Z,24864.00
2018-09-23T08:44:33.498Z,22656.00
2018-09-23T08:45:33.476Z,24672.00
2018-09-23T08:46:33.452Z,26240.00
2018-09-23T08:47:33.428Z,29600.00
2018-09-23T08:48:33.406Z,31584.00
2018-09-23T08:49:33.383Z,44480.00
2018-09-23T08:50:33.359Z,43776.00
2018-09-23T08:51:33.337Z,41472.00
2018-09-23T08:52:33.314Z,49376.00
2018-09-23T08:53:33.290Z,52800.00
2018-09-23T08:54:33.268Z,42368.00
2018-09-23T08:55:33.246Z,40352.00
2018-09-23T08:56:33.224Z,43968.00
2018-09-23T08:57:33.253Z,40320.00
2018-09-23T08:58:33.181Z,37728.00
2018-09-23T08:59:33.159Z,38400.00
2018-09-23T09:00:33.138Z,42240.00
2018-09-23T09:01:33.119Z,43872.00
2018-09-23T09:02:33.095Z,43168.00
2018-09-23T09:03:33.081Z,41152.00
2018-09-23T09:04:33.056Z,40224.00
2018-09-23T09:05:33.033Z,42464.00
2018-09-23T09:06:33.010Z,44576.00
2018-09-23T09:07:32.991Z,42496.00
2018-09-23T09:08:32.969Z,39488.00
2018-09-23T09:09:32.948Z,39648.00
2018-09-23T09:10:32.926Z,37888.00
2018-09-23T09:11:32.964Z,32256.00
2018-09-23T09:12:32.887Z,32384.00
2018-09-23T09:13:32.867Z,38112.00
2018-09-23T09:14:32.845Z,39680.00
2018-09-23T09:15:32.825Z,41472.00
2018-09-23T09:16:32.805Z,40800.00
2018-09-23T09:17:32.785Z,37536.00
2018-09-23T09:18:32.844Z,33600.00
2018-09-23T09:19:32.741Z,32352.00
2018-09-23T09:20:32.722Z,30560.00
2018-09-23T09:21:32.701Z,29920.00
2018-09-23T09:22:32.688Z,29760.00
2018-09-23T09:23:32.658Z,29760.00
2018-09-23T09:24:32.638Z,30272.00
2018-09-23T09:25:32.619Z,31680.00
2018-09-23T09:26:32.611Z,31712.00
2018-09-23T09:27:32.580Z,31040.00
2018-09-23T09:28:32.555Z,30336.00
2018-09-23T09:29:32.536Z,29856.00
2018-09-23T09:30:32.513Z,29952.00
2018-09-23T09:31:32.496Z,36192.00
2018-09-23T09:32:32.472Z,32160.00
2018-09-23T09:33:32.452Z,33312.00
2018-09-23T09:34:32.431Z,36800.00
2018-09-23T09:35:32.409Z,44736.00
2018-09-23T09:36:32.392Z,48000.00
2018-09-23T09:37:32.369Z,44384.00
2018-09-23T09:38:32.351Z,35488.00
2018-09-23T09:39:32.325Z,33952.00
2018-09-23T09:40:32.306Z,33088.00
2018-09-23T09:41:32.285Z,36928.00
2018-09-23T09:42:32.263Z,38752.00
2018-09-23T09:43:32.243Z,35648.00
2018-09-23T09:44:32.222Z,37120.00
2018-09-23T09:45:32.201Z,40384.00
2018-09-23T09:46:32.180Z,43680.00
2018-09-23T09:47:32.160Z,49216.00
2018-09-23T09:48:32.140Z,34368.00
2018-09-23T09:49:32.120Z,33824.00
2018-09-23T09:50:32.099Z,33184.00
2018-09-23T09:51:32.079Z,35488.00
2018-09-23T09:52:32.058Z,39840.00
2018-09-23T09:53:32.085Z,39808.00
2018-09-23T09:54:32.016Z,40000.00
2018-09-23T09:55:32.016Z,37280.00
2018-09-23T09:56:31.974Z,37120.00
2018-09-23T09:57:31.954Z,42272.00
2018-09-23T09:58:31.933Z,49888.00
2018-09-23T09:59:31.912Z,44544.00
2018-09-23T10:00:31.894Z,35904.00
2018-09-23T10:01:31.874Z,34304.00
2018-09-23T10:02:31.854Z,32704.00
2018-09-23T10:03:31.833Z,30560.00
2018-09-23T10:04:31.813Z,29312.00
2018-09-23T10:05:31.791Z,28736.00
2018-09-23T10:06:31.771Z,28064.00
2018-09-23T10:07:31.751Z,27872.00
2018-09-23T10:08:31.731Z,27744.00
2018-09-23T10:09:31.709Z,28992.00
2018-09-23T10:10:31.693Z,31840.00
2018-09-23T10:11:31.696Z,32224.00
2018-09-23T10:12:31.649Z,34272.00
2018-09-23T10:13:31.633Z,39072.00
2018-09-23T10:14:31.607Z,35808.00
2018-09-23T10:15:31.586Z,33664.00
2018-09-23T10:16:31.569Z,30752.00
2018-09-23T10:17:31.548Z,29056.00
2018-09-23T10:18:31.525Z,27744.00
2018-09-23T10:19:31.504Z,27552.00
2018-09-23T10:20:31.483Z,27552.00
2018-09-23T10:21:31.464Z,27872.00
2018-09-23T10:22:31.477Z,27776.00
2018-09-23T10:23:31.462Z,27072.00
2018-09-23T10:24:31.402Z,25920.00
2018-09-23T10:25:31.382Z,24416.00
2018-09-23T10:26:31.364Z,22912.00
2018-09-23T10:27:31.340Z,21568.00
2018-09-23T10:28:31.320Z,20640.00
2018-09-23T10:29:31.299Z,19840.00
2018-09-23T10:30:31.278Z,19104.00
2018-09-23T10:31:31.358Z,18720.00
2018-09-23T10:32:31.238Z,18752.00
2018-09-23T10:33:31.216Z,18720.00
2018-09-23T10:34:31.194Z,18592.00
2018-09-23T10:35:31.179Z,18464.00
2018-09-23T10:36:31.152Z,18208.00
2018-09-23T10:37:31.133Z,18304.00
2018-09-23T10:38:31.110Z,18752.00
2018-09-23T10:39:31.088Z,19264.00
2018-09-23T10:40:31.068Z,19584.00
2018-09-23T10:41:31.047Z,19552.00
2018-09-23T10:42:31.025Z,19296.00
2018-09-23T10:43:31.002Z,19136.00
2018-09-23T10:44:30.984Z,19008.00
2018-09-23T10:45:30.960Z,18816.00
2018-09-23T10:46:30.937Z,18848.00
2018-09-23T10:47:30.916Z,19104.00
2018-09-23T10:48:30.895Z,19360.00
2018-09-23T10:49:30.872Z,19616.00
2018-09-23T10:50:30.850Z,19552.00
2018-09-23T10:51:30.829Z,18912.00
2018-09-23T10:52:30.808Z,17984.00
2018-09-23T10:53:30.785Z,16984.00
2018-09-23T10:54:30.765Z,16604.00
2018-09-23T10:55:30.748Z,16676.00
2018-09-23T10:56:30.719Z,16912.00
2018-09-23T10:57:30.699Z,17344.00
2018-09-23T10:58:30.677Z,17792.00
2018-09-23T10:59:30.694Z,18368.00
2018-09-23T11:00:30.632Z,19040.00
2018-09-23T11:01:30.614Z,19872.00
2018-09-23T11:02:30.588Z,20320.00
2018-09-23T11:03:30.566Z,20288.00
2018-09-23T11:04:30.544Z,20256.00
2018-09-23T11:05:30.522Z,20384.00
2018-09-23T11:06:30.501Z,21024.00
2018-09-23T11:07:30.517Z,21728.00
2018-09-23T11:08:30.458Z,21504.00
2018-09-23T11:09:30.435Z,20800.00
2018-09-23T11:10:30.413Z,20480.00
2018-09-23T11:11:30.391Z,20416.00
2018-09-23T11:12:30.369Z,20800.00
2018-09-23T11:13:30.348Z,22144.00
2018-09-23T11:14:30.324Z,24512.00
2018-09-23T11:15:30.303Z,26272.00
2018-09-23T11:16:30.282Z,25856.00
2018-09-23T11:17:30.259Z,24224.00
2018-09-23T11:18:30.238Z,22848.00
2018-09-23T11:19:30.215Z,22592.00
2018-09-23T11:20:30.193Z,22912.00
2018-09-23T11:21:30.172Z,23328.00
2018-09-23T11:22:30.148Z,23520.00
2018-09-23T11:23:30.174Z,24224.00
2018-09-23T11:24:30.106Z,25152.00
2018-09-23T11:25:30.085Z,24800.00
2018-09-23T11:26:30.063Z,23360.00
2018-09-23T11:27:30.039Z,22048.00
2018-09-23T11:28:30.020Z,21184.00
2018-09-23T11:29:29.995Z,20544.00
2018-09-23T11:30:29.994Z,19744.00
2018-09-23T11:31:29.952Z,18912.00
2018-09-23T11:32:29.930Z,17664.00
2018-09-23T11:33:29.906Z,15960.00
2018-09-23T11:34:29.886Z,14844.00
2018-09-23T11:35:29.867Z,14104.00
2018-09-23T11:36:29.842Z,13516.00
2018-09-23T11:37:29.820Z,12836.00
2018-09-23T11:38:29.826Z,11912.00
2018-09-23T11:39:29.779Z,10948.00
2018-09-23T11:40:29.753Z,10060.00
2018-09-23T11:41:29.731Z,9432.00
2018-09-23T11:42:29.708Z,9248.00
2018-09-23T11:43:29.767Z,9520.00
2018-09-23T11:44:29.665Z,9996.00
2018-09-23T11:45:29.644Z,10328.00
2018-09-23T11:46:29.624Z,10348.00
2018-09-23T11:47:29.600Z,10288.00
2018-09-23T11:48:29.579Z,9992.00
2018-09-23T11:49:29.553Z,9480.00
2018-09-23T11:50:29.531Z,9008.00
2018-09-23T11:51:29.508Z,8600.00
2018-09-23T11:52:29.487Z,8148.00
2018-09-23T11:53:29.480Z,7768.00
2018-09-23T11:54:29.441Z,7460.00
2018-09-23T11:55:29.418Z,7180.00
2018-09-23T11:56:29.395Z,6892.00
2018-09-23T11:57:29.376Z,6684.00
2018-09-23T11:58:29.349Z,6572.00
2018-09-23T11:59:29.328Z,6512.00
2018-09-23T12:00:29.306Z,6432.00
2018-09-23T12:01:29.286Z,6376.00
2018-09-23T12:02:29.263Z,6388.00
2018-09-23T12:03:29.237Z,6432.00
2018-09-23T12:04:29.237Z,6532.00
2018-09-23T12:05:29.190Z,6644.00
2018-09-23T12:06:29.167Z,6620.00
2018-09-23T12:07:29.145Z,6540.00
2018-09-23T12:08:29.136Z,6480.00
2018-09-23T12:09:29.099Z,6476.00
2018-09-23T12:10:29.124Z,6516.00
2018-09-23T12:11:29.051Z,6552.00
2018-09-23T12:12:29.029Z,6576.00
2018-09-23T12:13:29.005Z,6604.00
2018-09-23T12:14:28.981Z,6660.00
2018-09-23T12:15:28.966Z,6756.00
2018-09-23T12:16:28.935Z,6876.00
2018-09-23T12:17:28.912Z,6988.00
2018-09-23T12:18:28.889Z,7116.00
2018-09-23T12:19:28.864Z,7172.00
2018-09-23T12:20:28.841Z,7104.00
2018-09-23T12:21:28.817Z,7008.00
2018-09-23T12:22:28.794Z,6884.00
2018-09-23T12:23:28.769Z,6628.00